sensor_id;sensor_type;location;lat;lon;timestamp;temperature;humidity
69533;DHT22;56729;52.036;5.332;2023-02-05T00:00:16;8.60;99.90
69533;DHT22;56729;52.036;5.332;2023-02-05T00:01:19;8.60;99.90
69533;DHT22;56729;52.036;5.332;2023-02-05T00:02:20;8.60;99.90
69533;DHT22;56729;52.036;5.332;2023-02-05T00:03:22;8.60;99.90
69533;DHT22;56729;52.036;5.332;2023-02-05T00:04:24;8.60;99.90
69533;DHT22;56729;52.036;5.332;2023-02-05T00:05:26;8.60;99.90
69533;DHT22;56729;52.036;5.332;2023-02-05T00:06:28;8.70;99.90
69533;DHT22;56729;52.036;5.332;2023-02-05T00:07:31;8.70;99.90
69533;DHT22;56729;52.036;5.332;2023-02-05T00:08:33;8.70;99.90
69533;DHT22;56729;52.036;5.332;2023-02-05T00:09:35;8.70;99.90
69533;DHT22;56729;52.036;5.332;2023-02-05T00:10:37;8.70;99.90
69533;DHT22;56729;52.036;5.332;2023-02-05T00:11:39;8.70;99.90
69533;DHT22;56729;52.036;5.332;2023-02-05T00:12:41;8.70;99.90
69533;DHT22;56729;52.036;5.332;2023-02-05T00:13:43;8.70;99.90
69533;DHT22;56729;52.036;5.332;2023-02-05T00:14:45;8.70;99.90
69533;DHT22;56729;52.036;5.332;2023-02-05T00:15:47;8.70;99.90
69533;DHT22;56729;52.036;5.332;2023-02-05T00:16:49;8.70;99.90
69533;DHT22;56729;52.036;5.332;2023-02-05T00:17:51;8.70;99.90
69533;DHT22;56729;52.036;5.332;2023-02-05T00:18:53;8.70;99.90
69533;DHT22;56729;52.036;5.332;2023-02-05T00:19:55;8.70;99.90
69533;DHT22;56729;52.036;5.332;2023-02-05T00:20:57;8.70;99.90
69533;DHT22;56729;52.036;5.332;2023-02-05T00:21:59;8.70;99.90
69533;DHT22;56729;52.036;5.332;2023-02-05T00:23:01;8.70;99.90
69533;DHT22;56729;52.036;5.332;2023-02-05T00:24:04;8.70;99.90
69533;DHT22;56729;52.036;5.332;2023-02-05T00:25:06;8.70;99.90
69533;DHT22;56729;52.036;5.332;2023-02-05T00:26:08;8.70;99.90
69533;DHT22;56729;52.036;5.332;2023-02-05T00:27:11;8.70;99.90
69533;DHT22;56729;52.036;5.332;2023-02-05T00:28:13;8.70;99.90
69533;DHT22;56729;52.036;5.332;2023-02-05T00:29:15;8.70;99.90
69533;DHT22;56729;52.036;5.332;2023-02-05T00:30:17;8.70;99.90
69533;DHT22;56729;52.036;5.332;2023-02-05T00:31:21;8.70;99.90
69533;DHT22;56729;52.036;5.332;2023-02-05T00:32:23;8.70;99.90
69533;DHT22;56729;52.036;5.332;2023-02-05T00:33:25;8.70;99.90
69533;DHT22;56729;52.036;5.332;2023-02-05T00:34:27;8.70;99.90
69533;DHT22;56729;52.036;5.332;2023-02-05T00:35:29;8.70;99.90
69533;DHT22;56729;52.036;5.332;2023-02-05T00:36:31;8.70;99.90
69533;DHT22;56729;52.036;5.332;2023-02-05T00:37:33;8.70;99.90
69533;DHT22;56729;52.036;5.332;2023-02-05T00:38:34;8.80;99.90
69533;DHT22;56729;52.036;5.332;2023-02-05T00:39:37;8.80;99.90
69533;DHT22;56729;52.036;5.332;2023-02-05T00:40:39;8.80;99.90
69533;DHT22;56729;52.036;5.332;2023-02-05T00:41:42;8.80;99.90
69533;DHT22;56729;52.036;5.332;2023-02-05T00:42:44;8.80;99.90
69533;DHT22;56729;52.036;5.332;2023-02-05T00:43:46;8.80;99.90
69533;DHT22;56729;52.036;5.332;2023-02-05T00:44:48;8.80;99.90
69533;DHT22;56729;52.036;5.332;2023-02-05T00:45:50;8.80;99.90
69533;DHT22;56729;52.036;5.332;2023-02-05T00:46:53;8.80;99.90
69533;DHT22;56729;52.036;5.332;2023-02-05T00:47:55;8.80;99.90
69533;DHT22;56729;52.036;5.332;2023-02-05T00:48:57;8.80;99.90
69533;DHT22;56729;52.036;5.332;2023-02-05T00:49:59;8.80;99.90
69533;DHT22;56729;52.036;5.332;2023-02-05T00:51:01;8.80;99.90
69533;DHT22;56729;52.036;5.332;2023-02-05T00:52:03;8.80;99.90
69533;DHT22;56729;52.036;5.332;2023-02-05T00:53:06;8.80;99.90
69533;DHT22;56729;52.036;5.332;2023-02-05T00:54:09;8.80;99.90
69533;DHT22;56729;52.036;5.332;2023-02-05T00:55:11;8.80;99.90
69533;DHT22;56729;52.036;5.332;2023-02-05T00:56:13;8.80;99.90
69533;DHT22;56729;52.036;5.332;2023-02-05T00:57:15;8.80;99.90
69533;DHT22;56729;52.036;5.332;2023-02-05T00:58:20;8.80;99.90
69533;DHT22;56729;52.036;5.332;2023-02-05T00:59:22;8.80;99.90
69533;DHT22;56729;52.036;5.332;2023-02-05T01:00:24;8.80;99.90
69533;DHT22;56729;52.036;5.332;2023-02-05T01:01:27;8.80;99.90
69533;DHT22;56729;52.036;5.332;2023-02-05T01:02:30;8.70;99.90
69533;DHT22;56729;52.036;5.332;2023-02-05T01:03:31;8.70;99.90
69533;DHT22;56729;52.036;5.332;2023-02-05T01:04:33;8.80;99.90
69533;DHT22;56729;52.036;5.332;2023-02-05T01:05:36;8.80;99.90
69533;DHT22;56729;52.036;5.332;2023-02-05T01:06:38;8.80;99.90
69533;DHT22;56729;52.036;5.332;2023-02-05T01:07:40;8.80;99.90
69533;DHT22;56729;52.036;5.332;2023-02-05T01:08:42;8.80;99.90
69533;DHT22;56729;52.036;5.332;2023-02-05T01:09:44;8.80;99.90
69533;DHT22;56729;52.036;5.332;2023-02-05T01:10:48;8.80;99.90
69533;DHT22;56729;52.036;5.332;2023-02-05T01:11:50;8.80;99.90
69533;DHT22;56729;52.036;5.332;2023-02-05T01:12:52;8.80;99.90
69533;DHT22;56729;52.036;5.332;2023-02-05T01:13:54;8.70;99.90
69533;DHT22;56729;52.036;5.332;2023-02-05T01:14:55;8.70;99.90
69533;DHT22;56729;52.036;5.332;2023-02-05T01:15:57;8.70;99.90
69533;DHT22;56729;52.036;5.332;2023-02-05T01:17:00;8.70;99.90
69533;DHT22;56729;52.036;5.332;2023-02-05T01:18:01;8.70;99.90
69533;DHT22;56729;52.036;5.332;2023-02-05T01:19:04;8.70;99.90
69533;DHT22;56729;52.036;5.332;2023-02-05T01:20:08;8.80;99.90
69533;DHT22;56729;52.036;5.332;2023-02-05T01:21:11;8.70;99.90
69533;DHT22;56729;52.036;5.332;2023-02-05T01:22:13;8.80;99.90
69533;DHT22;56729;52.036;5.332;2023-02-05T01:23:16;8.80;99.90
69533;DHT22;56729;52.036;5.332;2023-02-05T01:24:18;8.80;99.90
69533;DHT22;56729;52.036;5.332;2023-02-05T01:25:20;8.80;99.90
69533;DHT22;56729;52.036;5.332;2023-02-05T01:26:22;8.80;99.90
69533;DHT22;56729;52.036;5.332;2023-02-05T01:27:24;8.80;99.90
69533;DHT22;56729;52.036;5.332;2023-02-05T01:28:26;8.80;99.90
69533;DHT22;56729;52.036;5.332;2023-02-05T01:29:28;8.80;99.90
69533;DHT22;56729;52.036;5.332;2023-02-05T01:30:30;8.80;99.90
69533;DHT22;56729;52.036;5.332;2023-02-05T01:31:32;8.80;99.90
69533;DHT22;56729;52.036;5.332;2023-02-05T01:32:34;8.80;99.90
69533;DHT22;56729;52.036;5.332;2023-02-05T01:33:36;8.80;99.90
69533;DHT22;56729;52.036;5.332;2023-02-05T01:34:38;8.70;99.90
69533;DHT22;56729;52.036;5.332;2023-02-05T01:35:40;8.70;99.90
69533;DHT22;56729;52.036;5.332;2023-02-05T01:36:42;8.70;99.90
69533;DHT22;56729;52.036;5.332;2023-02-05T01:37:44;8.70;99.90
69533;DHT22;56729;52.036;5.332;2023-02-05T01:38:46;8.70;99.90
69533;DHT22;56729;52.036;5.332;2023-02-05T01:39:49;8.70;99.90
69533;DHT22;56729;52.036;5.332;2023-02-05T01:40:51;8.70;99.90
69533;DHT22;56729;52.036;5.332;2023-02-05T01:41:53;8.70;99.90
69533;DHT22;56729;52.036;5.332;2023-02-05T01:42:55;8.70;99.90
69533;DHT22;56729;52.036;5.332;2023-02-05T01:44:20;8.70;99.90
69533;DHT22;56729;52.036;5.332;2023-02-05T01:46:28;8.60;99.90
69533;DHT22;56729;52.036;5.332;2023-02-05T01:47:39;8.60;99.90
69533;DHT22;56729;52.036;5.332;2023-02-05T01:48:43;8.60;99.90
69533;DHT22;56729;52.036;5.332;2023-02-05T01:49:47;8.60;99.90
69533;DHT22;56729;52.036;5.332;2023-02-05T01:50:56;8.60;99.90
69533;DHT22;56729;52.036;5.332;2023-02-05T01:52:02;8.60;99.90
69533;DHT22;56729;52.036;5.332;2023-02-05T01:53:13;8.60;99.90
69533;DHT22;56729;52.036;5.332;2023-02-05T01:54:18;8.60;99.90
69533;DHT22;56729;52.036;5.332;2023-02-05T01:55:21;8.70;99.90
69533;DHT22;56729;52.036;5.332;2023-02-05T01:56:30;8.60;99.90
69533;DHT22;56729;52.036;5.332;2023-02-05T01:57:35;8.70;99.90
69533;DHT22;56729;52.036;5.332;2023-02-05T01:59:20;8.60;99.90
69533;DHT22;56729;52.036;5.332;2023-02-05T02:00:25;8.70;99.90
69533;DHT22;56729;52.036;5.332;2023-02-05T02:01:27;8.60;99.90
69533;DHT22;56729;52.036;5.332;2023-02-05T02:02:29;8.60;99.90
69533;DHT22;56729;52.036;5.332;2023-02-05T02:03:31;8.60;99.90
69533;DHT22;56729;52.036;5.332;2023-02-05T02:04:38;8.60;99.90
69533;DHT22;56729;52.036;5.332;2023-02-05T02:05:40;8.60;99.90
69533;DHT22;56729;52.036;5.332;2023-02-05T02:06:42;8.60;99.90
69533;DHT22;56729;52.036;5.332;2023-02-05T02:07:45;8.60;99.90
69533;DHT22;56729;52.036;5.332;2023-02-05T02:08:46;8.60;99.90
69533;DHT22;56729;52.036;5.332;2023-02-05T02:09:49;8.60;99.90
69533;DHT22;56729;52.036;5.332;2023-02-05T02:10:52;8.60;99.90
69533;DHT22;56729;52.036;5.332;2023-02-05T02:11:58;8.60;99.90
69533;DHT22;56729;52.036;5.332;2023-02-05T02:13:01;8.60;99.90
69533;DHT22;56729;52.036;5.332;2023-02-05T02:14:05;8.60;99.90
69533;DHT22;56729;52.036;5.332;2023-02-05T02:15:12;8.60;99.90
69533;DHT22;56729;52.036;5.332;2023-02-05T02:16:16;8.60;99.90
69533;DHT22;56729;52.036;5.332;2023-02-05T02:17:18;8.60;99.90
69533;DHT22;56729;52.036;5.332;2023-02-05T02:18:21;8.60;99.90
69533;DHT22;56729;52.036;5.332;2023-02-05T02:20:33;8.60;99.90
69533;DHT22;56729;52.036;5.332;2023-02-05T02:22:07;8.60;99.90
69533;DHT22;56729;52.036;5.332;2023-02-05T02:23:27;8.60;99.90
69533;DHT22;56729;52.036;5.332;2023-02-05T02:28:51;8.60;99.90
69533;DHT22;56729;52.036;5.332;2023-02-05T02:31:29;8.60;99.90
69533;DHT22;56729;52.036;5.332;2023-02-05T02:32:57;8.60;99.90
69533;DHT22;56729;52.036;5.332;2023-02-05T02:34:10;8.60;99.90
69533;DHT22;56729;52.036;5.332;2023-02-05T02:35:40;8.60;99.90
69533;DHT22;56729;52.036;5.332;2023-02-05T02:38:06;8.50;99.90
69533;DHT22;56729;52.036;5.332;2023-02-05T02:39:39;8.50;99.90
69533;DHT22;56729;52.036;5.332;2023-02-05T02:40:49;8.50;99.90
69533;DHT22;56729;52.036;5.332;2023-02-05T02:42:01;8.50;99.90
69533;DHT22;56729;52.036;5.332;2023-02-05T02:43:18;8.50;99.90
69533;DHT22;56729;52.036;5.332;2023-02-05T02:45:42;8.50;99.90
69533;DHT22;56729;52.036;5.332;2023-02-05T02:46:50;8.50;99.90
69533;DHT22;56729;52.036;5.332;2023-02-05T02:47:56;8.40;99.90
69533;DHT22;56729;52.036;5.332;2023-02-05T02:49:03;8.50;99.90
69533;DHT22;56729;52.036;5.332;2023-02-05T02:50:10;8.50;99.90
69533;DHT22;56729;52.036;5.332;2023-02-05T02:51:15;8.50;99.90
69533;DHT22;56729;52.036;5.332;2023-02-05T02:52:20;8.40;99.90
69533;DHT22;56729;52.036;5.332;2023-02-05T02:53:27;8.40;99.90
69533;DHT22;56729;52.036;5.332;2023-02-05T02:54:32;8.40;99.90
69533;DHT22;56729;52.036;5.332;2023-02-05T02:55:37;8.40;99.90
69533;DHT22;56729;52.036;5.332;2023-02-05T02:56:44;8.40;99.90
69533;DHT22;56729;52.036;5.332;2023-02-05T02:57:48;8.50;99.90
69533;DHT22;56729;52.036;5.332;2023-02-05T02:58:58;8.40;99.90
69533;DHT22;56729;52.036;5.332;2023-02-05T03:00:12;8.40;99.90
69533;DHT22;56729;52.036;5.332;2023-02-05T03:01:18;8.40;99.90
69533;DHT22;56729;52.036;5.332;2023-02-05T03:02:22;8.40;99.90
69533;DHT22;56729;52.036;5.332;2023-02-05T03:03:26;8.30;99.90
69533;DHT22;56729;52.036;5.332;2023-02-05T03:04:33;8.30;99.90
69533;DHT22;56729;52.036;5.332;2023-02-05T03:05:40;8.30;99.90
69533;DHT22;56729;52.036;5.332;2023-02-05T03:06:45;8.30;99.90
69533;DHT22;56729;52.036;5.332;2023-02-05T03:07:54;8.30;99.90
69533;DHT22;56729;52.036;5.332;2023-02-05T03:09:12;8.30;99.90
69533;DHT22;56729;52.036;5.332;2023-02-05T03:10:41;8.30;99.90
69533;DHT22;56729;52.036;5.332;2023-02-05T03:11:47;8.20;99.90
69533;DHT22;56729;52.036;5.332;2023-02-05T03:12:50;8.20;99.90
69533;DHT22;56729;52.036;5.332;2023-02-05T03:13:53;8.20;99.90
69533;DHT22;56729;52.036;5.332;2023-02-05T03:14:58;8.20;99.90
69533;DHT22;56729;52.036;5.332;2023-02-05T03:16:04;8.20;99.90
69533;DHT22;56729;52.036;5.332;2023-02-05T03:17:06;8.20;99.90
69533;DHT22;56729;52.036;5.332;2023-02-05T03:18:08;8.20;99.90
69533;DHT22;56729;52.036;5.332;2023-02-05T03:19:11;8.20;99.90
69533;DHT22;56729;52.036;5.332;2023-02-05T03:20:29;8.20;99.90
69533;DHT22;56729;52.036;5.332;2023-02-05T03:21:35;8.20;99.90
69533;DHT22;56729;52.036;5.332;2023-02-05T03:22:39;8.20;99.90
69533;DHT22;56729;52.036;5.332;2023-02-05T03:23:42;8.20;99.90
69533;DHT22;56729;52.036;5.332;2023-02-05T03:24:43;8.20;99.90
69533;DHT22;56729;52.036;5.332;2023-02-05T03:25:45;8.20;99.90
69533;DHT22;56729;52.036;5.332;2023-02-05T03:26:49;8.20;99.90
69533;DHT22;56729;52.036;5.332;2023-02-05T03:27:55;8.20;99.90
69533;DHT22;56729;52.036;5.332;2023-02-05T03:29:05;8.20;99.90
69533;DHT22;56729;52.036;5.332;2023-02-05T03:30:09;8.20;99.90
69533;DHT22;56729;52.036;5.332;2023-02-05T03:31:19;8.20;99.90
69533;DHT22;56729;52.036;5.332;2023-02-05T03:32:29;8.20;99.90
69533;DHT22;56729;52.036;5.332;2023-02-05T03:33:46;8.20;99.90
69533;DHT22;56729;52.036;5.332;2023-02-05T03:37:32;8.20;99.90
69533;DHT22;56729;52.036;5.332;2023-02-05T03:38:07;8.30;99.90
69533;DHT22;56729;52.036;5.332;2023-02-05T03:39:56;8.20;99.90
69533;DHT22;56729;52.036;5.332;2023-02-05T03:41:30;8.20;99.90
69533;DHT22;56729;52.036;5.332;2023-02-05T03:46:30;8.20;99.90
69533;DHT22;56729;52.036;5.332;2023-02-05T03:47:37;8.20;99.90
69533;DHT22;56729;52.036;5.332;2023-02-05T03:49:21;8.20;99.90
69533;DHT22;56729;52.036;5.332;2023-02-05T03:50:37;8.20;99.90
69533;DHT22;56729;52.036;5.332;2023-02-05T03:52:03;8.20;99.90
69533;DHT22;56729;52.036;5.332;2023-02-05T03:54:42;8.20;99.90
69533;DHT22;56729;52.036;5.332;2023-02-05T03:56:00;8.20;99.90
69533;DHT22;56729;52.036;5.332;2023-02-05T03:57:09;8.20;99.90
69533;DHT22;56729;52.036;5.332;2023-02-05T03:58:28;8.20;99.90
69533;DHT22;56729;52.036;5.332;2023-02-05T03:59:33;8.20;99.90
69533;DHT22;56729;52.036;5.332;2023-02-05T04:00:38;8.20;99.90
69533;DHT22;56729;52.036;5.332;2023-02-05T04:01:41;8.20;99.90
69533;DHT22;56729;52.036;5.332;2023-02-05T04:02:44;8.30;99.90
69533;DHT22;56729;52.036;5.332;2023-02-05T04:03:50;8.30;99.90
69533;DHT22;56729;52.036;5.332;2023-02-05T04:04:53;8.30;99.90
69533;DHT22;56729;52.036;5.332;2023-02-05T04:05:55;8.30;99.90
69533;DHT22;56729;52.036;5.332;2023-02-05T04:06:56;8.30;99.90
69533;DHT22;56729;52.036;5.332;2023-02-05T04:07:58;8.20;99.90
69533;DHT22;56729;52.036;5.332;2023-02-05T04:09:05;8.20;99.90
69533;DHT22;56729;52.036;5.332;2023-02-05T04:10:08;8.30;99.90
69533;DHT22;56729;52.036;5.332;2023-02-05T04:11:11;8.20;99.90
69533;DHT22;56729;52.036;5.332;2023-02-05T04:12:14;8.20;99.90
69533;DHT22;56729;52.036;5.332;2023-02-05T04:13:17;8.20;99.90
69533;DHT22;56729;52.036;5.332;2023-02-05T04:14:19;8.30;99.90
69533;DHT22;56729;52.036;5.332;2023-02-05T04:15:23;8.30;99.90
69533;DHT22;56729;52.036;5.332;2023-02-05T04:16:28;8.30;99.90
69533;DHT22;56729;52.036;5.332;2023-02-05T04:17:31;8.20;99.90
69533;DHT22;56729;52.036;5.332;2023-02-05T04:18:33;8.20;99.90
69533;DHT22;56729;52.036;5.332;2023-02-05T04:19:37;8.30;99.90
69533;DHT22;56729;52.036;5.332;2023-02-05T04:20:39;8.20;99.90
69533;DHT22;56729;52.036;5.332;2023-02-05T04:21:42;8.30;99.90
69533;DHT22;56729;52.036;5.332;2023-02-05T04:22:44;8.30;99.90
69533;DHT22;56729;52.036;5.332;2023-02-05T04:23:46;8.20;99.90
69533;DHT22;56729;52.036;5.332;2023-02-05T04:24:48;8.20;99.90
69533;DHT22;56729;52.036;5.332;2023-02-05T04:25:54;8.20;99.90
69533;DHT22;56729;52.036;5.332;2023-02-05T04:27:04;8.20;99.90
69533;DHT22;56729;52.036;5.332;2023-02-05T04:28:06;8.20;99.90
69533;DHT22;56729;52.036;5.332;2023-02-05T04:29:08;8.20;99.90
69533;DHT22;56729;52.036;5.332;2023-02-05T04:30:16;8.20;99.90
69533;DHT22;56729;52.036;5.332;2023-02-05T04:31:19;8.20;99.90
69533;DHT22;56729;52.036;5.332;2023-02-05T04:32:21;8.20;99.90
69533;DHT22;56729;52.036;5.332;2023-02-05T04:33:23;8.20;99.90
69533;DHT22;56729;52.036;5.332;2023-02-05T04:34:25;8.20;99.90
69533;DHT22;56729;52.036;5.332;2023-02-05T04:35:27;8.20;99.90
69533;DHT22;56729;52.036;5.332;2023-02-05T04:36:29;8.20;99.90
69533;DHT22;56729;52.036;5.332;2023-02-05T04:37:32;8.20;99.90
69533;DHT22;56729;52.036;5.332;2023-02-05T04:38:34;8.10;99.90
69533;DHT22;56729;52.036;5.332;2023-02-05T04:39:36;8.20;99.90
69533;DHT22;56729;52.036;5.332;2023-02-05T04:40:38;8.20;99.90
69533;DHT22;56729;52.036;5.332;2023-02-05T04:41:40;8.20;99.90
69533;DHT22;56729;52.036;5.332;2023-02-05T04:42:42;8.20;99.90
69533;DHT22;56729;52.036;5.332;2023-02-05T04:43:44;8.10;99.90
69533;DHT22;56729;52.036;5.332;2023-02-05T04:44:46;8.10;99.90
69533;DHT22;56729;52.036;5.332;2023-02-05T04:45:48;8.20;99.90
69533;DHT22;56729;52.036;5.332;2023-02-05T04:46:50;8.10;99.90
69533;DHT22;56729;52.036;5.332;2023-02-05T04:47:52;8.10;99.90
69533;DHT22;56729;52.036;5.332;2023-02-05T04:48:53;8.10;99.90
69533;DHT22;56729;52.036;5.332;2023-02-05T04:49:55;8.10;99.90
69533;DHT22;56729;52.036;5.332;2023-02-05T04:50:57;8.10;99.90
69533;DHT22;56729;52.036;5.332;2023-02-05T04:51:59;8.10;99.90
69533;DHT22;56729;52.036;5.332;2023-02-05T04:53:01;8.10;99.90
69533;DHT22;56729;52.036;5.332;2023-02-05T04:54:03;8.10;99.90
69533;DHT22;56729;52.036;5.332;2023-02-05T04:55:06;8.10;99.90
69533;DHT22;56729;52.036;5.332;2023-02-05T04:56:11;8.10;99.90
69533;DHT22;56729;52.036;5.332;2023-02-05T04:57:13;8.10;99.90
69533;DHT22;56729;52.036;5.332;2023-02-05T04:58:15;8.10;99.90
69533;DHT22;56729;52.036;5.332;2023-02-05T04:59:16;8.10;99.90
69533;DHT22;56729;52.036;5.332;2023-02-05T05:00:18;8.10;99.90
69533;DHT22;56729;52.036;5.332;2023-02-05T05:01:23;8.10;99.90
69533;DHT22;56729;52.036;5.332;2023-02-05T05:02:25;8.10;99.90
69533;DHT22;56729;52.036;5.332;2023-02-05T05:03:27;8.10;99.90
69533;DHT22;56729;52.036;5.332;2023-02-05T05:04:29;8.10;99.90
69533;DHT22;56729;52.036;5.332;2023-02-05T05:05:33;8.10;99.90
69533;DHT22;56729;52.036;5.332;2023-02-05T05:06:35;8.10;99.90
69533;DHT22;56729;52.036;5.332;2023-02-05T05:07:38;8.10;99.90
69533;DHT22;56729;52.036;5.332;2023-02-05T05:08:40;8.10;99.90
69533;DHT22;56729;52.036;5.332;2023-02-05T05:09:45;8.10;99.90
69533;DHT22;56729;52.036;5.332;2023-02-05T05:10:47;8.10;99.90
69533;DHT22;56729;52.036;5.332;2023-02-05T05:11:50;8.10;99.90
69533;DHT22;56729;52.036;5.332;2023-02-05T05:12:52;8.00;99.90
69533;DHT22;56729;52.036;5.332;2023-02-05T05:13:54;8.00;99.90
69533;DHT22;56729;52.036;5.332;2023-02-05T05:14:56;8.00;99.90
69533;DHT22;56729;52.036;5.332;2023-02-05T05:15:57;8.00;99.90
69533;DHT22;56729;52.036;5.332;2023-02-05T05:16:59;8.00;99.90
69533;DHT22;56729;52.036;5.332;2023-02-05T05:18:01;8.00;99.90
69533;DHT22;56729;52.036;5.332;2023-02-05T05:19:03;8.00;99.90
69533;DHT22;56729;52.036;5.332;2023-02-05T05:20:05;8.00;99.90
69533;DHT22;56729;52.036;5.332;2023-02-05T05:21:07;8.00;99.90
69533;DHT22;56729;52.036;5.332;2023-02-05T05:22:09;8.00;99.90
69533;DHT22;56729;52.036;5.332;2023-02-05T05:23:11;8.00;99.90
69533;DHT22;56729;52.036;5.332;2023-02-05T05:24:13;8.00;99.90
69533;DHT22;56729;52.036;5.332;2023-02-05T05:25:15;8.00;99.90
69533;DHT22;56729;52.036;5.332;2023-02-05T05:26:17;8.00;99.90
69533;DHT22;56729;52.036;5.332;2023-02-05T05:27:19;8.00;99.90
69533;DHT22;56729;52.036;5.332;2023-02-05T05:28:23;8.00;99.90
69533;DHT22;56729;52.036;5.332;2023-02-05T05:29:25;7.90;99.90
69533;DHT22;56729;52.036;5.332;2023-02-05T05:30:27;7.90;99.90
69533;DHT22;56729;52.036;5.332;2023-02-05T05:31:29;7.90;99.90
69533;DHT22;56729;52.036;5.332;2023-02-05T05:32:31;7.90;99.90
69533;DHT22;56729;52.036;5.332;2023-02-05T05:33:33;7.90;99.90
69533;DHT22;56729;52.036;5.332;2023-02-05T05:34:35;7.90;99.90
69533;DHT22;56729;52.036;5.332;2023-02-05T05:35:37;7.90;99.90
69533;DHT22;56729;52.036;5.332;2023-02-05T05:36:40;7.90;99.90
69533;DHT22;56729;52.036;5.332;2023-02-05T05:37:44;7.90;99.90
69533;DHT22;56729;52.036;5.332;2023-02-05T05:38:46;7.90;99.90
69533;DHT22;56729;52.036;5.332;2023-02-05T05:39:48;7.90;99.90
69533;DHT22;56729;52.036;5.332;2023-02-05T05:41:17;7.90;99.90
69533;DHT22;56729;52.036;5.332;2023-02-05T05:42:38;7.90;99.90
69533;DHT22;56729;52.036;5.332;2023-02-05T05:43:59;7.90;99.90
69533;DHT22;56729;52.036;5.332;2023-02-05T05:45:01;7.90;99.90
69533;DHT22;56729;52.036;5.332;2023-02-05T05:46:03;7.90;99.90
69533;DHT22;56729;52.036;5.332;2023-02-05T05:47:06;7.90;99.90
69533;DHT22;56729;52.036;5.332;2023-02-05T05:48:09;7.90;99.90
69533;DHT22;56729;52.036;5.332;2023-02-05T05:49:11;7.90;99.90
69533;DHT22;56729;52.036;5.332;2023-02-05T05:50:13;7.80;99.90
69533;DHT22;56729;52.036;5.332;2023-02-05T05:51:15;7.80;99.90
69533;DHT22;56729;52.036;5.332;2023-02-05T05:52:17;7.80;99.90
69533;DHT22;56729;52.036;5.332;2023-02-05T05:53:19;7.80;99.90
69533;DHT22;56729;52.036;5.332;2023-02-05T05:54:21;7.80;99.90
69533;DHT22;56729;52.036;5.332;2023-02-05T05:55:23;7.70;99.90
69533;DHT22;56729;52.036;5.332;2023-02-05T05:56:25;7.70;99.90
69533;DHT22;56729;52.036;5.332;2023-02-05T05:57:27;7.70;99.90
69533;DHT22;56729;52.036;5.332;2023-02-05T05:58:29;7.70;99.90
69533;DHT22;56729;52.036;5.332;2023-02-05T05:59:31;7.60;99.90
69533;DHT22;56729;52.036;5.332;2023-02-05T06:00:33;7.60;99.90
69533;DHT22;56729;52.036;5.332;2023-02-05T06:01:35;7.60;99.90
69533;DHT22;56729;52.036;5.332;2023-02-05T06:02:40;7.60;99.90
69533;DHT22;56729;52.036;5.332;2023-02-05T06:03:42;7.50;99.90
69533;DHT22;56729;52.036;5.332;2023-02-05T06:04:45;7.50;99.90
69533;DHT22;56729;52.036;5.332;2023-02-05T06:05:46;7.50;99.90
69533;DHT22;56729;52.036;5.332;2023-02-05T06:06:48;7.50;99.90
69533;DHT22;56729;52.036;5.332;2023-02-05T06:07:50;7.40;99.90
69533;DHT22;56729;52.036;5.332;2023-02-05T06:08:52;7.40;99.90
69533;DHT22;56729;52.036;5.332;2023-02-05T06:09:54;7.30;99.90
69533;DHT22;56729;52.036;5.332;2023-02-05T06:10:56;7.30;99.90
69533;DHT22;56729;52.036;5.332;2023-02-05T06:11:58;7.30;99.90
69533;DHT22;56729;52.036;5.332;2023-02-05T06:13:00;7.30;99.90
69533;DHT22;56729;52.036;5.332;2023-02-05T06:14:01;7.30;99.90
69533;DHT22;56729;52.036;5.332;2023-02-05T06:15:05;7.20;99.90
69533;DHT22;56729;52.036;5.332;2023-02-05T06:16:07;7.20;99.90
69533;DHT22;56729;52.036;5.332;2023-02-05T06:17:09;7.20;99.90
69533;DHT22;56729;52.036;5.332;2023-02-05T06:18:11;7.20;99.90
69533;DHT22;56729;52.036;5.332;2023-02-05T06:19:13;7.10;99.90
69533;DHT22;56729;52.036;5.332;2023-02-05T06:20:14;7.10;99.90
69533;DHT22;56729;52.036;5.332;2023-02-05T06:21:16;7.10;99.90
69533;DHT22;56729;52.036;5.332;2023-02-05T06:22:18;7.00;99.90
69533;DHT22;56729;52.036;5.332;2023-02-05T06:23:20;7.00;99.90
69533;DHT22;56729;52.036;5.332;2023-02-05T06:24:22;7.00;99.90
69533;DHT22;56729;52.036;5.332;2023-02-05T06:25:24;7.00;99.90
69533;DHT22;56729;52.036;5.332;2023-02-05T06:26:25;7.00;99.90
69533;DHT22;56729;52.036;5.332;2023-02-05T06:27:27;7.00;99.90
69533;DHT22;56729;52.036;5.332;2023-02-05T06:28:29;6.90;99.90
69533;DHT22;56729;52.036;5.332;2023-02-05T06:29:31;6.90;99.90
69533;DHT22;56729;52.036;5.332;2023-02-05T06:30:33;6.90;99.90
69533;DHT22;56729;52.036;5.332;2023-02-05T06:31:35;6.90;99.90
69533;DHT22;56729;52.036;5.332;2023-02-05T06:32:37;6.90;99.90
69533;DHT22;56729;52.036;5.332;2023-02-05T06:33:39;6.90;99.90
69533;DHT22;56729;52.036;5.332;2023-02-05T06:34:41;6.90;99.90
69533;DHT22;56729;52.036;5.332;2023-02-05T06:35:42;6.90;99.90
69533;DHT22;56729;52.036;5.332;2023-02-05T06:36:44;6.90;99.90
69533;DHT22;56729;52.036;5.332;2023-02-05T06:37:46;6.90;99.90
69533;DHT22;56729;52.036;5.332;2023-02-05T06:38:48;6.90;99.90
69533;DHT22;56729;52.036;5.332;2023-02-05T06:39:50;6.90;99.90
69533;DHT22;56729;52.036;5.332;2023-02-05T06:40:52;6.90;99.90
69533;DHT22;56729;52.036;5.332;2023-02-05T06:41:54;6.90;99.90
69533;DHT22;56729;52.036;5.332;2023-02-05T06:42:56;6.90;99.90
69533;DHT22;56729;52.036;5.332;2023-02-05T06:43:58;6.90;99.90
69533;DHT22;56729;52.036;5.332;2023-02-05T06:45:00;6.80;99.90
69533;DHT22;56729;52.036;5.332;2023-02-05T06:46:02;6.80;99.90
69533;DHT22;56729;52.036;5.332;2023-02-05T06:47:04;6.80;99.90
69533;DHT22;56729;52.036;5.332;2023-02-05T06:48:06;6.80;99.90
69533;DHT22;56729;52.036;5.332;2023-02-05T06:49:08;6.80;99.90
69533;DHT22;56729;52.036;5.332;2023-02-05T06:50:10;6.80;99.90
69533;DHT22;56729;52.036;5.332;2023-02-05T06:51:12;6.80;99.90
69533;DHT22;56729;52.036;5.332;2023-02-05T06:52:14;6.80;99.90
69533;DHT22;56729;52.036;5.332;2023-02-05T06:53:16;6.80;99.90
69533;DHT22;56729;52.036;5.332;2023-02-05T06:54:18;6.80;99.90
69533;DHT22;56729;52.036;5.332;2023-02-05T06:55:20;6.70;99.90
69533;DHT22;56729;52.036;5.332;2023-02-05T06:56:25;6.70;99.90
69533;DHT22;56729;52.036;5.332;2023-02-05T06:57:27;6.70;99.90
69533;DHT22;56729;52.036;5.332;2023-02-05T06:58:28;6.70;99.90
69533;DHT22;56729;52.036;5.332;2023-02-05T06:59:31;6.70;99.90
69533;DHT22;56729;52.036;5.332;2023-02-05T07:00:33;6.70;99.90
69533;DHT22;56729;52.036;5.332;2023-02-05T07:01:35;6.70;99.90
69533;DHT22;56729;52.036;5.332;2023-02-05T07:02:37;6.70;99.90
69533;DHT22;56729;52.036;5.332;2023-02-05T07:03:39;6.70;99.90
69533;DHT22;56729;52.036;5.332;2023-02-05T07:04:41;6.70;99.90
69533;DHT22;56729;52.036;5.332;2023-02-05T07:05:44;6.70;99.90
69533;DHT22;56729;52.036;5.332;2023-02-05T07:06:47;6.60;99.90
69533;DHT22;56729;52.036;5.332;2023-02-05T07:07:48;6.70;99.90
69533;DHT22;56729;52.036;5.332;2023-02-05T07:08:51;6.60;99.90
69533;DHT22;56729;52.036;5.332;2023-02-05T07:09:54;6.70;99.90
69533;DHT22;56729;52.036;5.332;2023-02-05T07:10:56;6.60;99.90